SWA1665 KDEN-KOMA
Flight info
| Callsign | SWA1665 |
|---|---|
| Flight time | 1h 2m |
| Altitude | 37000 |
| Route | EEONS8 WYNDM HCT GRI HOWRY3 |
| Aircraft | B38M/M-SDE1FGHILORVWXY/HB1 |
Departure
| Time | 2026-04-23 15:38 |
|---|---|
| Airport | Denver International Airport (KDEN) |
Arrival
| Time | 2026-04-23 16:40 |
|---|---|
| Airport | Eppley Airfield (KOMA) |
| Time | Latitude | Longitude | Altitude | Speed | Heading |
|---|---|---|---|---|---|
| 2026-04-23 15:15 | 39.85329 | -104.67108 | 5368 ft | 0 kts | 15° |
| 2026-04-23 15:28 | 39.85322 | -104.67111 | 5366 ft | 3 kts | 12° |
| 2026-04-23 15:29 | 39.85275 | -104.67074 | 5364 ft | 0 kts | 270° |
| 2026-04-23 15:33 | 39.85275 | -104.67088 | 5364 ft | 9 kts | 270° |
| 2026-04-23 15:34 | 39.85275 | -104.67276 | 5365 ft | 25 kts | 270° |
| 2026-04-23 15:34 | 39.85275 | -104.67531 | 5368 ft | 31 kts | 269° |
| 2026-04-23 15:34 | 39.85276 | -104.67754 | 5367 ft | 24 kts | 269° |
| 2026-04-23 15:34 | 39.85279 | -104.67970 | 5367 ft | 24 kts | 272° |
| 2026-04-23 15:35 | 39.85258 | -104.68177 | 5366 ft | 23 kts | 243° |
| 2026-04-23 15:35 | 39.85206 | -104.68375 | 5368 ft | 23 kts | 267° |
| 2026-04-23 15:35 | 39.85202 | -104.68581 | 5367 ft | 23 kts | 269° |
| 2026-04-23 15:35 | 39.85201 | -104.68784 | 5367 ft | 22 kts | 269° |
| 2026-04-23 15:36 | 39.85202 | -104.68988 | 5367 ft | 22 kts | 271° |
| 2026-04-23 15:36 | 39.85204 | -104.69188 | 5368 ft | 22 kts | 271° |
| 2026-04-23 15:36 | 39.85204 | -104.69383 | 5368 ft | 21 kts | 268° |
| 2026-04-23 15:36 | 39.85199 | -104.69570 | 5367 ft | 18 kts | 265° |
| 2026-04-23 15:37 | 39.85269 | -104.69653 | 5366 ft | 3 kts | 0° |
| 2026-04-23 15:37 | 39.85345 | -104.69650 | 5367 ft | 41 kts | 0° |
| 2026-04-23 15:37 | 39.85871 | -104.69655 | 5368 ft | 112 kts | 0° |
| 2026-04-23 15:37 | 39.86877 | -104.69655 | 5368 ft | 172 kts | 0° |
| 2026-04-23 15:38 | 39.88203 | -104.69466 | 5699 ft | 201 kts | 12° |
| 2026-04-23 15:38 | 39.89589 | -104.69048 | 6497 ft | 211 kts | 19° |
| 2026-04-23 15:38 | 39.91009 | -104.68297 | 7158 ft | 224 kts | 19° |
| 2026-04-23 15:38 | 39.92377 | -104.67138 | 7676 ft | 252 kts | 44° |
| 2026-04-23 15:39 | 39.93355 | -104.65126 | 8277 ft | 271 kts | 62° |
| 2026-04-23 15:39 | 39.94171 | -104.62884 | 9189 ft | 276 kts | 63° |
| 2026-04-23 15:39 | 39.94823 | -104.60473 | 9514 ft | 291 kts | 81° |
| 2026-04-23 15:39 | 39.94929 | -104.57826 | 9665 ft | 299 kts | 87° |
| 2026-04-23 15:40 | 39.95031 | -104.55049 | 9819 ft | 305 kts | 86° |
| 2026-04-23 15:40 | 39.95123 | -104.52275 | 9924 ft | 308 kts | 87° |
| 2026-04-23 15:40 | 39.95209 | -104.49484 | 9951 ft | 309 kts | 87° |
| 2026-04-23 15:40 | 39.95292 | -104.46691 | 9955 ft | 308 kts | 87° |
| 2026-04-23 15:41 | 39.95371 | -104.43927 | 9954 ft | 308 kts | 87° |
| 2026-04-23 15:41 | 39.95449 | -104.41131 | 9941 ft | 309 kts | 87° |
| 2026-04-23 15:41 | 39.95627 | -104.38297 | 10306 ft | 320 kts | 84° |
| 2026-04-23 15:41 | 39.95847 | -104.35320 | 10854 ft | 339 kts | 84° |
| 2026-04-23 15:42 | 39.96067 | -104.32201 | 11382 ft | 356 kts | 84° |
| 2026-04-23 15:42 | 39.96294 | -104.28920 | 11649 ft | 367 kts | 84° |
| 2026-04-23 15:42 | 39.96522 | -104.25595 | 11693 ft | 368 kts | 84° |
| 2026-04-23 15:42 | 39.96750 | -104.22261 | 11697 ft | 369 kts | 84° |
| 2026-04-23 15:43 | 39.96974 | -104.18944 | 11685 ft | 367 kts | 84° |
| 2026-04-23 15:43 | 39.97210 | -104.15630 | 11687 ft | 368 kts | 82° |
| 2026-04-23 15:43 | 39.97583 | -104.12305 | 12381 ft | 369 kts | 81° |
| 2026-04-23 15:43 | 39.97950 | -104.08971 | 13204 ft | 376 kts | 81° |
| 2026-04-23 15:44 | 39.98316 | -104.05573 | 13920 ft | 382 kts | 82° |
| 2026-04-23 15:44 | 39.98685 | -104.02113 | 14592 ft | 389 kts | 82° |
| 2026-04-23 15:44 | 39.99060 | -103.98591 | 15279 ft | 394 kts | 83° |
| 2026-04-23 15:44 | 39.99433 | -103.95066 | 15921 ft | 401 kts | 83° |
| 2026-04-23 15:45 | 39.99887 | -103.91417 | 16586 ft | 406 kts | 80° |
| 2026-04-23 15:45 | 40.00432 | -103.87813 | 17217 ft | 412 kts | 80° |
| 2026-04-23 15:45 | 40.01015 | -103.84124 | 17837 ft | 418 kts | 80° |
| 2026-04-23 15:45 | 40.01611 | -103.80403 | 18450 ft | 421 kts | 81° |
| 2026-04-23 15:46 | 40.02218 | -103.76633 | 19008 ft | 426 kts | 80° |
| 2026-04-23 15:46 | 40.02848 | -103.72842 | 19569 ft | 430 kts | 81° |
| 2026-04-23 15:46 | 40.03480 | -103.69004 | 20140 ft | 434 kts | 81° |
| 2026-04-23 15:46 | 40.04118 | -103.65121 | 20700 ft | 438 kts | 81° |
| 2026-04-23 15:47 | 40.04756 | -103.61224 | 21252 ft | 442 kts | 82° |
| 2026-04-23 15:47 | 40.05403 | -103.57268 | 21789 ft | 446 kts | 82° |
| 2026-04-23 15:47 | 40.06052 | -103.53286 | 22330 ft | 450 kts | 82° |
| 2026-04-23 15:47 | 40.06705 | -103.49270 | 22844 ft | 454 kts | 82° |
| 2026-04-23 15:48 | 40.07363 | -103.45216 | 23350 ft | 458 kts | 83° |
| 2026-04-23 15:48 | 40.08015 | -103.41189 | 23893 ft | 461 kts | 83° |
| 2026-04-23 15:48 | 40.08678 | -103.37088 | 24376 ft | 463 kts | 83° |
| 2026-04-23 15:48 | 40.09345 | -103.32945 | 24842 ft | 466 kts | 83° |
| 2026-04-23 15:49 | 40.10014 | -103.28788 | 25298 ft | 469 kts | 83° |
| 2026-04-23 15:49 | 40.10684 | -103.24609 | 25723 ft | 471 kts | 83° |
| 2026-04-23 15:49 | 40.11359 | -103.20388 | 26167 ft | 474 kts | 84° |
| 2026-04-23 15:49 | 40.12032 | -103.16168 | 26590 ft | 476 kts | 84° |
| 2026-04-23 15:50 | 40.12708 | -103.11925 | 26811 ft | 479 kts | 84° |
| 2026-04-23 15:50 | 40.13388 | -103.07644 | 27169 ft | 483 kts | 84° |
| 2026-04-23 15:50 | 40.14070 | -103.03333 | 27569 ft | 485 kts | 84° |
| 2026-04-23 15:50 | 40.14755 | -102.98996 | 27963 ft | 488 kts | 84° |
| 2026-04-23 15:51 | 40.15443 | -102.94634 | 28339 ft | 491 kts | 84° |
| 2026-04-23 15:51 | 40.16123 | -102.90307 | 28713 ft | 494 kts | 84° |
| 2026-04-23 15:51 | 40.16814 | -102.85897 | 29085 ft | 496 kts | 84° |
| 2026-04-23 15:51 | 40.17506 | -102.81468 | 29454 ft | 499 kts | 85° |
| 2026-04-23 15:52 | 40.18202 | -102.77006 | 29769 ft | 502 kts | 85° |
| 2026-04-23 15:52 | 40.18898 | -102.72535 | 29997 ft | 506 kts | 85° |
| 2026-04-23 15:52 | 40.19600 | -102.68004 | 30266 ft | 509 kts | 85° |
| 2026-04-23 15:52 | 40.20306 | -102.63445 | 30581 ft | 511 kts | 85° |
| 2026-04-23 15:53 | 40.21008 | -102.58892 | 30859 ft | 513 kts | 85° |
| 2026-04-23 15:53 | 40.21711 | -102.54319 | 31154 ft | 516 kts | 85° |
| 2026-04-23 15:53 | 40.22420 | -102.49701 | 31440 ft | 518 kts | 85° |
| 2026-04-23 15:53 | 40.23130 | -102.45059 | 31726 ft | 520 kts | 85° |
| 2026-04-23 15:54 | 40.23842 | -102.40392 | 31996 ft | 523 kts | 85° |
| 2026-04-23 15:54 | 40.24554 | -102.35706 | 32268 ft | 526 kts | 85° |
| 2026-04-23 15:54 | 40.25266 | -102.31009 | 32559 ft | 527 kts | 85° |
| 2026-04-23 15:54 | 40.25978 | -102.26302 | 32969 ft | 526 kts | 85° |
| 2026-04-23 15:55 | 40.26686 | -102.21604 | 33363 ft | 525 kts | 85° |
| 2026-04-23 15:55 | 40.27393 | -102.16906 | 33733 ft | 525 kts | 85° |
| 2026-04-23 15:55 | 40.28096 | -102.12217 | 34037 ft | 525 kts | 85° |
| 2026-04-23 15:55 | 40.28801 | -102.07509 | 34322 ft | 526 kts | 85° |
| 2026-04-23 15:56 | 40.29492 | -102.02870 | 34581 ft | 526 kts | 84° |
| 2026-04-23 15:56 | 40.30201 | -101.98100 | 34840 ft | 527 kts | 84° |
| 2026-04-23 15:56 | 40.30891 | -101.93439 | 35125 ft | 528 kts | 84° |
| 2026-04-23 15:56 | 40.31589 | -101.88718 | 35423 ft | 528 kts | 84° |
| 2026-04-23 15:57 | 40.32284 | -101.83995 | 35700 ft | 528 kts | 84° |
| 2026-04-23 15:57 | 40.32978 | -101.79274 | 35979 ft | 528 kts | 83° |
| 2026-04-23 15:57 | 40.33671 | -101.74538 | 36261 ft | 528 kts | 83° |
| 2026-04-23 15:57 | 40.34360 | -101.69821 | 36524 ft | 529 kts | 83° |
| 2026-04-23 15:58 | 40.35050 | -101.65073 | 36713 ft | 528 kts | 83° |
| 2026-04-23 15:58 | 40.36412 | -101.55694 | 36778 ft | 519 kts | 83° |
| 2026-04-23 15:59 | 40.37525 | -101.47985 | 36770 ft | 518 kts | 83° |
| 2026-04-23 15:59 | 40.38858 | -101.38682 | 36752 ft | 518 kts | 83° |
| 2026-04-23 16:00 | 40.40187 | -101.29386 | 36687 ft | 518 kts | 84° |
| 2026-04-23 16:00 | 40.41508 | -101.20095 | 36695 ft | 517 kts | 84° |
| 2026-04-23 16:01 | 40.42819 | -101.10824 | 36697 ft | 516 kts | 84° |
| 2026-04-23 16:01 | 40.44121 | -101.01559 | 36688 ft | 516 kts | 84° |
| 2026-04-23 16:02 | 40.45465 | -100.92300 | 36687 ft | 518 kts | 79° |
| 2026-04-23 16:02 | 40.47388 | -100.83178 | 36703 ft | 520 kts | 78° |
| 2026-04-23 16:03 | 40.49336 | -100.74095 | 36704 ft | 519 kts | 78° |
| 2026-04-23 16:03 | 40.51302 | -100.64898 | 36703 ft | 519 kts | 78° |
| 2026-04-23 16:04 | 40.53237 | -100.55811 | 36655 ft | 519 kts | 78° |
| 2026-04-23 16:04 | 40.55173 | -100.46675 | 36685 ft | 519 kts | 78° |
| 2026-04-23 16:05 | 40.56779 | -100.39069 | 36670 ft | 518 kts | 78° |
| 2026-04-23 16:05 | 40.59024 | -100.28390 | 36689 ft | 519 kts | 78° |
| 2026-04-23 16:06 | 40.60942 | -100.19224 | 36648 ft | 518 kts | 78° |
| 2026-04-23 16:06 | 40.62844 | -100.10096 | 36678 ft | 517 kts | 78° |
| 2026-04-23 16:07 | 40.64741 | -100.00948 | 36668 ft | 517 kts | 78° |
| 2026-04-23 16:07 | 40.66614 | -99.91881 | 36666 ft | 516 kts | 78° |
| 2026-04-23 16:08 | 40.68493 | -99.82740 | 36634 ft | 516 kts | 79° |
| 2026-04-23 16:08 | 40.70360 | -99.73622 | 36668 ft | 515 kts | 79° |
| 2026-04-23 16:09 | 40.72218 | -99.64506 | 36662 ft | 515 kts | 79° |
| 2026-04-23 16:09 | 40.74072 | -99.55368 | 36673 ft | 514 kts | 79° |
| 2026-04-23 16:10 | 40.75910 | -99.46271 | 36668 ft | 514 kts | 79° |
| 2026-04-23 16:10 | 40.77745 | -99.37150 | 36673 ft | 514 kts | 79° |
| 2026-04-23 16:11 | 40.79570 | -99.28036 | 36657 ft | 514 kts | 79° |
| 2026-04-23 16:11 | 40.81390 | -99.18905 | 36650 ft | 514 kts | 79° |
| 2026-04-23 16:12 | 40.83186 | -99.09852 | 36652 ft | 514 kts | 79° |
| 2026-04-23 16:12 | 40.84993 | -99.00706 | 36644 ft | 513 kts | 79° |
| 2026-04-23 16:13 | 40.86789 | -98.91573 | 36640 ft | 513 kts | 79° |
| 2026-04-23 16:13 | 40.89465 | -98.77887 | 36639 ft | 513 kts | 79° |
| 2026-04-23 16:14 | 40.91233 | -98.68796 | 36616 ft | 512 kts | 79° |
| 2026-04-23 16:14 | 40.92990 | -98.59712 | 36639 ft | 509 kts | 79° |
| 2026-04-23 16:15 | 40.94741 | -98.50634 | 36640 ft | 509 kts | 79° |
| 2026-04-23 16:15 | 40.96482 | -98.41568 | 36681 ft | 509 kts | 79° |
| 2026-04-23 16:16 | 40.98232 | -98.32481 | 36654 ft | 509 kts | 77° |
| 2026-04-23 16:16 | 41.00526 | -98.23616 | 35497 ft | 517 kts | 74° |
| 2026-04-23 16:17 | 41.01726 | -98.19135 | 35023 ft | 511 kts | 74° |
| 2026-04-23 16:17 | 41.02917 | -98.14690 | 34099 ft | 515 kts | 74° |
| 2026-04-23 16:17 | 41.04125 | -98.10181 | 33259 ft | 517 kts | 74° |
| 2026-04-23 16:17 | 41.05316 | -98.05727 | 32633 ft | 513 kts | 74° |
| 2026-04-23 16:18 | 41.06508 | -98.01261 | 31827 ft | 513 kts | 74° |
| 2026-04-23 16:18 | 41.07697 | -97.96796 | 31027 ft | 514 kts | 74° |
| 2026-04-23 16:18 | 41.08866 | -97.92400 | 30444 ft | 511 kts | 74° |
| 2026-04-23 16:18 | 41.10040 | -97.87974 | 29870 ft | 507 kts | 74° |
| 2026-04-23 16:19 | 41.11206 | -97.83574 | 29269 ft | 502 kts | 74° |
| 2026-04-23 16:19 | 41.12357 | -97.79220 | 28660 ft | 498 kts | 74° |
| 2026-04-23 16:19 | 41.13493 | -97.74917 | 28077 ft | 494 kts | 74° |
| 2026-04-23 16:19 | 41.14622 | -97.70632 | 27526 ft | 489 kts | 74° |
| 2026-04-23 16:20 | 41.15737 | -97.66392 | 26991 ft | 484 kts | 74° |
| 2026-04-23 16:20 | 41.16840 | -97.62191 | 26476 ft | 480 kts | 75° |
| 2026-04-23 16:20 | 41.17936 | -97.58013 | 25924 ft | 476 kts | 74° |
| 2026-04-23 16:20 | 41.19011 | -97.53903 | 25460 ft | 471 kts | 75° |
| 2026-04-23 16:21 | 41.20082 | -97.49805 | 24987 ft | 467 kts | 75° |
| 2026-04-23 16:21 | 41.21136 | -97.45764 | 24585 ft | 461 kts | 75° |
| 2026-04-23 16:21 | 41.22180 | -97.41755 | 24062 ft | 459 kts | 75° |
| 2026-04-23 16:21 | 41.23221 | -97.37750 | 23614 ft | 456 kts | 75° |
| 2026-04-23 16:22 | 41.24250 | -97.33787 | 23133 ft | 453 kts | 75° |
| 2026-04-23 16:22 | 41.25275 | -97.29831 | 22626 ft | 450 kts | 75° |
| 2026-04-23 16:22 | 41.26286 | -97.25925 | 22113 ft | 446 kts | 75° |
| 2026-04-23 16:22 | 41.27291 | -97.22030 | 21641 ft | 443 kts | 75° |
| 2026-04-23 16:23 | 41.28284 | -97.18180 | 21179 ft | 440 kts | 75° |
| 2026-04-23 16:23 | 41.29273 | -97.14339 | 20725 ft | 436 kts | 75° |
| 2026-04-23 16:23 | 41.30248 | -97.10546 | 20276 ft | 433 kts | 75° |
| 2026-04-23 16:23 | 41.31221 | -97.06758 | 19823 ft | 430 kts | 75° |
| 2026-04-23 16:24 | 41.32172 | -97.03046 | 19392 ft | 427 kts | 75° |
| 2026-04-23 16:24 | 41.33129 | -96.99306 | 18947 ft | 424 kts | 75° |
| 2026-04-23 16:24 | 41.34078 | -96.95591 | 18526 ft | 422 kts | 75° |
| 2026-04-23 16:24 | 41.35019 | -96.91908 | 18139 ft | 419 kts | 75° |
| 2026-04-23 16:25 | 41.35917 | -96.88231 | 17708 ft | 413 kts | 81° |
| 2026-04-23 16:25 | 41.36167 | -96.84499 | 17288 ft | 398 kts | 100° |
| 2026-04-23 16:25 | 41.35741 | -96.80912 | 16816 ft | 391 kts | 106° |
| 2026-04-23 16:25 | 41.35216 | -96.77434 | 16396 ft | 387 kts | 107° |
| 2026-04-23 16:26 | 41.34643 | -96.73901 | 15929 ft | 385 kts | 108° |
| 2026-04-23 16:26 | 41.34063 | -96.70447 | 15493 ft | 382 kts | 108° |
| 2026-04-23 16:26 | 41.33478 | -96.67048 | 15062 ft | 380 kts | 109° |
| 2026-04-23 16:26 | 41.32875 | -96.63585 | 14616 ft | 379 kts | 109° |
| 2026-04-23 16:27 | 41.32285 | -96.60221 | 14194 ft | 377 kts | 109° |
| 2026-04-23 16:27 | 41.31689 | -96.56826 | 13767 ft | 375 kts | 109° |
| 2026-04-23 16:27 | 41.31100 | -96.53487 | 13504 ft | 368 kts | 109° |
| 2026-04-23 16:27 | 41.30524 | -96.50227 | 13347 ft | 358 kts | 109° |
| 2026-04-23 16:28 | 41.29960 | -96.47036 | 13171 ft | 349 kts | 109° |
| 2026-04-23 16:28 | 41.29412 | -96.43938 | 13045 ft | 340 kts | 109° |
| 2026-04-23 16:28 | 41.28875 | -96.40918 | 12927 ft | 330 kts | 109° |
| 2026-04-23 16:28 | 41.28355 | -96.37993 | 12786 ft | 321 kts | 110° |
| 2026-04-23 16:29 | 41.27846 | -96.35140 | 12651 ft | 312 kts | 110° |
| 2026-04-23 16:29 | 41.27355 | -96.32381 | 12395 ft | 311 kts | 110° |
| 2026-04-23 16:29 | 41.26961 | -96.29494 | 11963 ft | 321 kts | 96° |
| 2026-04-23 16:29 | 41.27321 | -96.26543 | 11501 ft | 336 kts | 72° |
| 2026-04-23 16:30 | 41.28532 | -96.23858 | 11021 ft | 341 kts | 48° |
| 2026-04-23 16:30 | 41.30385 | -96.21970 | 10553 ft | 335 kts | 24° |
| 2026-04-23 16:30 | 41.32590 | -96.21153 | 10093 ft | 324 kts | 0° |
| 2026-04-23 16:30 | 41.34817 | -96.21111 | 9681 ft | 317 kts | 354° |
| 2026-04-23 16:31 | 41.37013 | -96.21178 | 9213 ft | 313 kts | 354° |
| 2026-04-23 16:31 | 41.39164 | -96.21316 | 8734 ft | 307 kts | 348° |
| 2026-04-23 16:31 | 41.41248 | -96.21810 | 8294 ft | 301 kts | 343° |
| 2026-04-23 16:31 | 41.43295 | -96.22382 | 7842 ft | 298 kts | 343° |
| 2026-04-23 16:32 | 41.45307 | -96.22940 | 7383 ft | 295 kts | 343° |
| 2026-04-23 16:32 | 41.47313 | -96.23503 | 6954 ft | 292 kts | 343° |
| 2026-04-23 16:32 | 41.49281 | -96.24062 | 6480 ft | 288 kts | 344° |
| 2026-04-23 16:32 | 41.51286 | -96.24208 | 6031 ft | 290 kts | 5° |
| 2026-04-23 16:33 | 41.53188 | -96.23350 | 5553 ft | 292 kts | 32° |
| 2026-04-23 16:33 | 41.54656 | -96.21505 | 5053 ft | 292 kts | 56° |
| 2026-04-23 16:33 | 41.55500 | -96.19098 | 4615 ft | 284 kts | 79° |
| 2026-04-23 16:33 | 41.55703 | -96.16527 | 4149 ft | 275 kts | 102° |
| 2026-04-23 16:34 | 41.55188 | -96.14195 | 3967 ft | 258 kts | 126° |
| 2026-04-23 16:34 | 41.54127 | -96.12305 | 3978 ft | 254 kts | 140° |
| 2026-04-23 16:34 | 41.52849 | -96.10756 | 3946 ft | 239 kts | 147° |
| 2026-04-23 16:34 | 41.51582 | -96.09443 | 4025 ft | 226 kts | 149° |
| 2026-04-23 16:35 | 41.50322 | -96.08199 | 3984 ft | 225 kts | 150° |
| 2026-04-23 16:35 | 41.49059 | -96.06971 | 3983 ft | 225 kts | 151° |
| 2026-04-23 16:35 | 41.47794 | -96.05749 | 4037 ft | 222 kts | 152° |
| 2026-04-23 16:35 | 41.46559 | -96.04564 | 3970 ft | 214 kts | 152° |
| 2026-04-23 16:36 | 41.45382 | -96.03443 | 4009 ft | 203 kts | 153° |
| 2026-04-23 16:36 | 41.44264 | -96.02370 | 3943 ft | 194 kts | 153° |
| 2026-04-23 16:36 | 41.43177 | -96.01333 | 3997 ft | 189 kts | 153° |
| 2026-04-23 16:36 | 41.42166 | -96.00353 | 4022 ft | 172 kts | 153° |
| 2026-04-23 16:37 | 41.41196 | -95.99426 | 4000 ft | 169 kts | 153° |
| 2026-04-23 16:37 | 41.40257 | -95.98529 | 3693 ft | 166 kts | 154° |
| 2026-04-23 16:37 | 41.39329 | -95.97594 | 3418 ft | 164 kts | 150° |
| 2026-04-23 16:37 | 41.38482 | -95.96643 | 3137 ft | 158 kts | 150° |
| 2026-04-23 16:38 | 41.37613 | -95.95774 | 2731 ft | 156 kts | 153° |
| 2026-04-23 16:38 | 41.36724 | -95.94983 | 2269 ft | 151 kts | 153° |
| 2026-04-23 16:38 | 41.35883 | -95.94192 | 1976 ft | 145 kts | 154° |
| 2026-04-23 16:38 | 41.35077 | -95.93434 | 1794 ft | 140 kts | 152° |
| 2026-04-23 16:39 | 41.34275 | -95.92755 | 1622 ft | 133 kts | 154° |
| 2026-04-23 16:39 | 41.33510 | -95.92063 | 1577 ft | 133 kts | 150° |
| 2026-04-23 16:39 | 41.32772 | -95.91351 | 1379 ft | 129 kts | 151° |
| 2026-04-23 16:39 | 41.32046 | -95.90686 | 1176 ft | 126 kts | 150° |
| 2026-04-23 16:40 | 41.31358 | -95.90048 | 1006 ft | 117 kts | 148° |
| 2026-04-23 16:40 | 41.30748 | -95.89474 | 992 ft | 90 kts | 148° |
| 2026-04-23 16:40 | 41.30401 | -95.89132 | 993 ft | 40 kts | 144° |
| 2026-04-23 16:40 | 41.30247 | -95.89042 | 987 ft | 16 kts | 207° |
| 2026-04-23 16:41 | 41.30220 | -95.89119 | 989 ft | 9 kts | 293° |
| 2026-04-23 16:41 | 41.30269 | -95.89192 | 991 ft | 12 kts | 319° |
| 2026-04-23 16:41 | 41.30349 | -95.89268 | 992 ft | 16 kts | 324° |
| 2026-04-23 16:41 | 41.30441 | -95.89365 | 991 ft | 17 kts | 299° |
| 2026-04-23 16:42 | 41.30448 | -95.89386 | 995 ft | 1 kts | 295° |
| 2026-04-23 16:42 | 41.30472 | -95.89409 | 992 ft | 10 kts | 329° |
| 2026-04-23 16:42 | 41.30577 | -95.89484 | 994 ft | 24 kts | 335° |
| 2026-04-23 16:42 | 41.30618 | -95.89604 | 993 ft | 16 kts | 199° |
| 2026-04-23 16:43 | 41.30501 | -95.89604 | 991 ft | 18 kts | 177° |
| 2026-04-23 16:43 | 41.30361 | -95.89602 | 991 ft | 22 kts | 179° |
| 2026-04-23 16:43 | 41.30209 | -95.89603 | 990 ft | 21 kts | 180° |
| 2026-04-23 16:43 | 41.30064 | -95.89605 | 988 ft | 20 kts | 180° |
| 2026-04-23 16:44 | 41.30024 | -95.89706 | 987 ft | 14 kts | 287° |
| 2026-04-23 16:44 | 41.30057 | -95.89781 | 993 ft | 8 kts | 304° |
| 2026-04-23 16:44 | 41.30066 | -95.89797 | 990 ft | 0 kts | 307° |